createdAt,value
2018-12-05T00:00:12.446Z,9.5
2018-12-05T00:01:12.443Z,8.6
2018-12-05T00:02:12.515Z,7.8
2018-12-05T00:03:12.455Z,7
2018-12-05T00:04:12.426Z,6.4
2018-12-05T00:05:12.446Z,5.7
2018-12-05T00:06:12.509Z,5.3
2018-12-05T00:07:12.526Z,5.8
2018-12-05T00:08:12.452Z,6.2
2018-12-05T00:09:12.573Z,6.7
2018-12-05T00:10:12.483Z,7.2
2018-12-05T00:11:12.449Z,7.7
2018-12-05T00:12:12.520Z,8
2018-12-05T00:13:12.456Z,8.7
2018-12-05T00:14:12.484Z,9.3
2018-12-05T00:15:12.436Z,9.9
2018-12-05T00:16:12.491Z,10.4
2018-12-05T00:17:12.432Z,10.6
2018-12-05T00:18:12.460Z,10.8
2018-12-05T00:19:12.428Z,11
2018-12-05T00:20:12.468Z,11.1
2018-12-05T00:21:12.428Z,11.2
2018-12-05T00:22:12.437Z,11.4
2018-12-05T00:23:12.483Z,11.5
2018-12-05T00:24:12.418Z,11.5
2018-12-05T00:25:12.486Z,11.7
2018-12-05T00:26:12.437Z,11.9
2018-12-05T00:27:12.437Z,12
2018-12-05T00:28:12.466Z,12.2
2018-12-05T00:29:12.409Z,12.5
2018-12-05T00:30:12.452Z,12.8
2018-12-05T00:31:12.468Z,13
2018-12-05T00:32:12.417Z,13.2
2018-12-05T00:33:12.438Z,13.2
2018-12-05T00:34:12.487Z,13.3
2018-12-05T00:35:12.416Z,13.3
2018-12-05T00:36:12.431Z,13.2
2018-12-05T00:37:12.418Z,13.1
2018-12-05T00:38:12.480Z,13.1
2018-12-05T00:39:12.436Z,13.1
2018-12-05T00:40:12.441Z,13.1
2018-12-05T00:41:12.443Z,13.1
2018-12-05T00:42:12.478Z,13.1
2018-12-05T00:43:12.450Z,13.1
2018-12-05T00:44:12.416Z,13.1
2018-12-05T00:45:12.511Z,12.7
2018-12-05T00:46:12.442Z,12.3
2018-12-05T00:47:12.487Z,12
2018-12-05T00:48:12.394Z,11.6
2018-12-05T00:49:12.406Z,11.2
2018-12-05T00:50:12.426Z,10.9
2018-12-05T00:51:12.512Z,10.6
2018-12-05T00:52:12.424Z,10.2
2018-12-05T00:53:12.418Z,9.7
2018-12-05T00:54:12.427Z,9
2018-12-05T00:55:12.479Z,8.2
2018-12-05T00:56:14.392Z,7.4
2018-12-05T00:57:14.906Z,6.7
2018-12-05T00:58:13.839Z,6
2018-12-05T00:59:13.693Z,5.5
2018-12-05T01:00:14.358Z,4.9
2018-12-05T01:01:14.067Z,4.5
2018-12-05T01:02:12.469Z,4.1
2018-12-05T01:03:12.421Z,3.7
2018-12-05T01:04:12.385Z,3.3
2018-12-05T01:05:12.494Z,3
2018-12-05T01:06:12.424Z,2.7
2018-12-05T01:07:12.485Z,2.5
2018-12-05T01:08:12.421Z,2.2
2018-12-05T01:09:12.435Z,2
2018-12-05T01:10:12.400Z,1.8
2018-12-05T01:11:12.469Z,1.6
2018-12-05T01:12:12.528Z,1.5
2018-12-05T01:13:12.440Z,1.3
2018-12-05T01:14:12.407Z,1.2
2018-12-05T01:15:12.403Z,1.1
2018-12-05T01:16:12.417Z,1
2018-12-05T01:17:12.501Z,0.9
2018-12-05T01:18:12.419Z,0.8
2018-12-05T01:19:12.413Z,0.7
2018-12-05T01:20:12.370Z,0.7
2018-12-05T01:21:12.417Z,0.6
2018-12-05T01:22:12.495Z,0.5
2018-12-05T01:23:12.414Z,0.5
2018-12-05T01:24:12.409Z,0.4
2018-12-05T01:25:12.386Z,0.4
2018-12-05T01:26:12.510Z,0.4
2018-12-05T01:27:12.417Z,0.3
2018-12-05T01:28:12.417Z,0.3
2018-12-05T01:29:12.376Z,0.3
2018-12-05T01:30:12.412Z,0.2
2018-12-05T01:31:12.417Z,0.2
2018-12-05T01:32:22.276Z,0.2
2018-12-05T01:33:12.383Z,0.2
2018-12-05T01:34:12.409Z,0.2
2018-12-05T01:35:12.410Z,0.1
2018-12-05T01:36:12.383Z,0.1
2018-12-05T01:37:12.470Z,0.2
2018-12-05T01:38:12.413Z,0.2
2018-12-05T01:39:12.411Z,0.2
2018-12-05T01:40:12.382Z,0.1
2018-12-05T01:41:12.374Z,0.1
2018-12-05T01:42:12.440Z,0.1
2018-12-05T01:43:12.377Z,0.1
2018-12-05T01:44:12.405Z,0.1
2018-12-05T01:45:12.380Z,0.1
2018-12-05T01:46:12.382Z,0.1
2018-12-05T01:47:12.457Z,0.1
2018-12-05T01:48:12.359Z,0.1
2018-12-05T01:49:12.406Z,0.1
2018-12-05T01:50:12.405Z,0.1
2018-12-05T01:51:12.396Z,0
2018-12-05T01:52:12.455Z,0
2018-12-05T01:53:12.387Z,0
2018-12-05T01:54:12.427Z,0
2018-12-05T01:55:12.406Z,0
2018-12-05T01:56:12.396Z,0.3
2018-12-05T01:57:12.469Z,0.9
2018-12-05T01:58:12.385Z,1.4
2018-12-05T01:59:12.459Z,1.8
2018-12-05T02:00:12.400Z,1.8
2018-12-05T02:01:12.373Z,1.7
2018-12-05T02:02:12.445Z,1.6
2018-12-05T02:03:12.392Z,1.8
2018-12-05T02:04:12.362Z,1.6
2018-12-05T02:05:12.446Z,1.5
2018-12-05T02:06:12.366Z,1.4
2018-12-05T02:07:12.373Z,1.8
2018-12-05T02:08:12.387Z,2.5
2018-12-05T02:09:12.350Z,3
2018-12-05T02:10:12.422Z,3.6
2018-12-05T02:11:12.474Z,4.2
2018-12-05T02:12:12.387Z,4.5
2018-12-05T02:13:12.376Z,4.7
2018-12-05T02:14:12.384Z,4.8
2018-12-05T02:15:12.356Z,4.7
2018-12-05T02:16:12.449Z,4.7
2018-12-05T02:18:13.360Z,4.6
2018-12-05T02:19:12.384Z,4.5
2018-12-05T02:20:12.412Z,4.4
2018-12-05T02:21:12.460Z,4.2
2018-12-05T02:22:12.368Z,3.8
2018-12-05T02:23:12.383Z,3.4
2018-12-05T02:24:12.392Z,3.1
2018-12-05T02:25:12.444Z,2.8
2018-12-05T02:26:12.363Z,2.5
2018-12-05T02:27:12.381Z,2.3
2018-12-05T02:28:12.360Z,2.1
2018-12-05T02:29:12.382Z,2.1
2018-12-05T02:30:12.433Z,1.9
2018-12-05T02:31:12.367Z,1.7
2018-12-05T02:32:12.506Z,1.6
2018-12-05T02:33:12.356Z,1.4
2018-12-05T02:34:12.363Z,1.3
2018-12-05T02:35:12.357Z,1.2
2018-12-05T02:36:12.340Z,1
2018-12-05T02:37:12.440Z,0.9
2018-12-05T02:38:12.372Z,0.9
2018-12-05T02:39:12.357Z,0.8
2018-12-05T02:40:12.417Z,0.7
2018-12-05T02:41:13.350Z,0.6
2018-12-05T02:42:12.385Z,0.6
2018-12-05T02:43:12.451Z,0.5
2018-12-05T02:44:12.355Z,0.5
2018-12-05T02:45:12.374Z,0.4
2018-12-05T02:46:12.423Z,0.4
2018-12-05T02:47:12.362Z,0.3
2018-12-05T02:48:12.356Z,0.3
2018-12-05T02:49:12.353Z,0.3
2018-12-05T02:50:12.348Z,0.3
2018-12-05T02:51:12.436Z,0.2
2018-12-05T02:52:12.373Z,0.2
2018-12-05T02:53:12.367Z,0.2
2018-12-05T02:54:12.377Z,0.2
2018-12-05T02:55:12.402Z,0.2
2018-12-05T02:56:12.419Z,0.1
2018-12-05T02:57:12.363Z,0.1
2018-12-05T02:58:12.422Z,0.3
2018-12-05T02:59:12.351Z,0.6
2018-12-05T03:00:12.366Z,1.1
2018-12-05T03:01:12.380Z,1.4
2018-12-05T03:02:12.366Z,1.4
2018-12-05T03:03:12.384Z,1.3
2018-12-05T03:04:12.423Z,1.2
2018-12-05T03:05:12.351Z,1.1
2018-12-05T03:06:12.374Z,1
2018-12-05T03:08:12.397Z,1.7
2018-12-05T03:09:12.350Z,2.1
2018-12-05T03:10:12.347Z,2.5
2018-12-05T03:11:12.346Z,2.8
2018-12-05T03:12:12.365Z,2.9
2018-12-05T03:13:12.359Z,3
2018-12-05T03:14:12.327Z,2.8
2018-12-05T03:15:12.398Z,2.7
2018-12-05T03:16:12.346Z,2.9
2018-12-05T03:17:12.436Z,3
2018-12-05T03:18:12.367Z,3.3
2018-12-05T03:19:12.341Z,3.6
2018-12-05T03:20:12.325Z,3.9
2018-12-05T03:21:12.429Z,4.1
2018-12-05T03:22:12.438Z,4.4
2018-12-05T03:23:12.340Z,4.8
2018-12-05T03:24:12.341Z,5.2
2018-12-05T03:25:12.345Z,5.6
2018-12-05T03:26:12.331Z,6
2018-12-05T03:27:12.358Z,6.3
2018-12-05T03:28:12.340Z,6.4
2018-12-05T03:29:12.358Z,6.4
2018-12-05T03:30:12.358Z,6.5
2018-12-05T03:31:12.392Z,6.5
2018-12-05T03:32:12.429Z,6.5
2018-12-05T03:33:12.451Z,6.6
2018-12-05T03:34:12.341Z,6.5
2018-12-05T03:35:12.328Z,6.5
2018-12-05T03:36:12.323Z,6.4
2018-12-05T03:37:12.385Z,6.3
2018-12-05T03:38:12.382Z,6
2018-12-05T03:39:12.358Z,5.9
2018-12-05T03:40:12.323Z,5.9
2018-12-05T03:41:12.349Z,6
2018-12-05T03:42:12.399Z,6
2018-12-05T03:43:12.367Z,5.9
2018-12-05T03:44:12.351Z,5.6
2018-12-05T03:45:12.319Z,5.1
2018-12-05T03:46:12.320Z,4.6
2018-12-05T03:47:12.362Z,4.4
2018-12-05T03:48:12.345Z,4
2018-12-05T03:49:12.388Z,3.6
2018-12-05T03:50:12.319Z,3.3
2018-12-05T03:51:12.345Z,2.9
2018-12-05T03:52:12.422Z,2.7
2018-12-05T03:53:12.377Z,2.4
2018-12-05T03:54:12.324Z,2.3
2018-12-05T03:55:12.348Z,2.3
2018-12-05T03:56:12.344Z,2.1
2018-12-05T03:57:12.399Z,1.9
2018-12-05T03:58:12.327Z,1.7
2018-12-05T03:59:12.330Z,1.6
2018-12-05T04:00:12.328Z,1.4
2018-12-05T04:01:12.321Z,1.3
2018-12-05T04:02:12.370Z,1.2
2018-12-05T04:03:12.302Z,1
2018-12-05T04:04:12.314Z,0.9
2018-12-05T04:05:12.371Z,0.9
2018-12-05T04:06:12.414Z,0.8
2018-12-05T04:07:12.328Z,0.7
2018-12-05T04:08:12.339Z,0.6
2018-12-05T04:09:12.322Z,0.6
2018-12-05T04:10:12.345Z,0.5
2018-12-05T04:11:12.385Z,0.5
2018-12-05T04:12:12.340Z,0.4
2018-12-05T04:13:12.336Z,0.4
2018-12-05T04:14:12.313Z,0.3
2018-12-05T04:15:12.391Z,0.3
2018-12-05T04:16:12.320Z,0.3
2018-12-05T04:17:12.384Z,0.3
2018-12-05T04:18:12.996Z,0.2
2018-12-05T04:19:12.315Z,0.2
2018-12-05T04:20:12.387Z,0.2
2018-12-05T04:21:12.331Z,0.2
2018-12-05T04:22:12.313Z,0.2
2018-12-05T04:23:12.333Z,0.1
2018-12-05T04:24:12.426Z,0.1
2018-12-05T04:25:12.326Z,0.1
2018-12-05T04:26:12.308Z,0.1
2018-12-05T04:27:12.339Z,0.1
2018-12-05T04:28:12.400Z,0.1
2018-12-05T04:29:12.316Z,0.1
2018-12-05T04:30:12.328Z,0.1
2018-12-05T04:31:12.370Z,0.1
2018-12-05T04:32:12.293Z,0.1
2018-12-05T04:33:12.397Z,0.1
2018-12-05T04:34:12.332Z,0
2018-12-05T04:35:12.421Z,0
2018-12-05T04:36:12.307Z,0
2018-12-05T04:37:12.379Z,0
2018-12-05T04:38:12.306Z,0
2018-12-05T04:39:12.306Z,0
2018-12-05T04:40:12.307Z,0
2018-12-05T04:41:12.329Z,0
2018-12-05T04:42:12.377Z,0
2018-12-05T04:43:12.370Z,0
2018-12-05T04:44:12.322Z,0
2018-12-05T04:45:12.320Z,0
2018-12-05T04:46:12.367Z,0
2018-12-05T04:47:12.297Z,0
2018-12-05T04:48:12.332Z,0
2018-12-05T04:49:12.372Z,0
2018-12-05T04:50:12.296Z,0
2018-12-05T04:51:12.295Z,0
2018-12-05T04:52:12.323Z,0
2018-12-05T04:53:12.381Z,0
2018-12-05T04:54:12.298Z,0
2018-12-05T04:55:12.355Z,0
2018-12-05T04:56:12.298Z,0
2018-12-05T04:57:12.295Z,0
2018-12-05T04:58:12.305Z,0
2018-12-05T04:59:12.389Z,0
2018-12-05T05:00:12.285Z,0
2018-12-05T05:01:12.284Z,0
2018-12-05T05:02:12.320Z,0
2018-12-05T05:03:12.347Z,0
2018-12-05T05:04:12.371Z,0
2018-12-05T05:05:12.379Z,0
2018-12-05T05:06:12.291Z,0
2018-12-05T05:07:12.282Z,0
2018-12-05T05:08:12.292Z,0
2018-12-05T05:09:12.278Z,0
2018-12-05T05:10:12.388Z,0
2018-12-05T05:11:12.318Z,0
2018-12-05T05:12:12.316Z,0
2018-12-05T05:13:12.319Z,0
2018-12-05T05:14:12.284Z,0
2018-12-05T05:15:12.381Z,0
2018-12-05T05:16:12.262Z,0
2018-12-05T05:17:12.301Z,0
2018-12-05T05:18:12.301Z,0
2018-12-05T05:19:12.309Z,0
2018-12-05T05:20:12.362Z,0
2018-12-05T05:21:12.286Z,0
2018-12-05T05:22:12.290Z,0
2018-12-05T05:23:12.272Z,0
2018-12-05T05:24:12.311Z,0
2018-12-05T05:25:12.352Z,0
2018-12-05T05:26:12.312Z,0
2018-12-05T05:27:12.392Z,0
2018-12-05T05:28:12.309Z,0
2018-12-05T05:29:12.330Z,0
2018-12-05T05:30:12.303Z,0
2018-12-05T05:31:12.321Z,0
2018-12-05T05:32:12.279Z,0
2018-12-05T05:33:12.308Z,0
2018-12-05T05:34:12.281Z,0
2018-12-05T05:35:12.279Z,0
2018-12-05T05:36:12.514Z,0
2018-12-05T05:37:12.295Z,0
2018-12-05T05:38:12.710Z,0
2018-12-05T05:39:12.283Z,0
2018-12-05T05:40:12.291Z,0
2018-12-05T05:41:12.304Z,0
2018-12-05T05:42:12.288Z,0
2018-12-05T05:43:12.362Z,0
2018-12-05T05:44:12.295Z,0
2018-12-05T05:45:12.314Z,0
2018-12-05T05:46:12.291Z,0
2018-12-05T05:47:12.344Z,0
2018-12-05T05:48:12.351Z,0
2018-12-05T05:49:12.306Z,0
2018-12-05T05:50:12.264Z,0
2018-12-05T05:51:12.381Z,0
2018-12-05T05:52:12.317Z,0.2
2018-12-05T05:53:12.321Z,0.5
2018-12-05T05:54:12.292Z,0.4
2018-12-05T05:55:12.286Z,0.4
2018-12-05T05:56:12.286Z,0.3
2018-12-05T05:57:12.274Z,0.3
2018-12-05T05:58:12.316Z,0.3
2018-12-05T05:59:12.297Z,0.3
2018-12-05T06:00:12.269Z,0.2
2018-12-05T06:01:12.303Z,0.2
2018-12-05T06:02:12.356Z,0.2
2018-12-05T06:03:12.349Z,0.2
2018-12-05T06:04:12.290Z,0.2
2018-12-05T06:05:12.262Z,0.2
2018-12-05T06:06:12.264Z,0.3
2018-12-05T06:07:12.356Z,0.5
2018-12-05T06:08:12.289Z,0.8
2018-12-05T06:09:12.276Z,1.2
2018-12-05T06:10:12.261Z,1.6
2018-12-05T06:11:12.267Z,2
2018-12-05T06:12:12.328Z,2.2
2018-12-05T06:13:12.268Z,2.4
2018-12-05T06:14:12.309Z,2.5
2018-12-05T06:15:12.260Z,2.7
2018-12-05T06:16:12.260Z,3
2018-12-05T06:17:12.261Z,3.3
2018-12-05T06:18:12.254Z,3.4
2018-12-05T06:19:12.263Z,3.4
2018-12-05T06:20:12.310Z,3.3
2018-12-05T06:21:12.264Z,3.2
2018-12-05T06:22:12.332Z,3.1
2018-12-05T06:23:12.338Z,2.8
2018-12-05T06:24:12.262Z,2.5
2018-12-05T06:25:12.313Z,2.3
2018-12-05T06:26:12.262Z,2
2018-12-05T06:27:12.277Z,1.8
2018-12-05T06:28:12.269Z,1.7
2018-12-05T06:29:12.246Z,1.5
2018-12-05T06:30:12.353Z,1.4
2018-12-05T06:31:12.304Z,1.2
2018-12-05T06:32:12.270Z,1.1
2018-12-05T06:33:12.275Z,1
2018-12-05T06:34:12.257Z,0.9
2018-12-05T06:35:12.273Z,0.8
2018-12-05T06:36:12.332Z,0.8
2018-12-05T06:37:12.272Z,0.7
2018-12-05T06:38:12.276Z,0.6
2018-12-05T06:39:12.286Z,0.7
2018-12-05T06:40:12.254Z,0.7
2018-12-05T06:41:12.341Z,0.6
2018-12-05T06:42:12.248Z,0.5
2018-12-05T06:43:12.240Z,0.5
2018-12-05T06:44:12.267Z,0.4
2018-12-05T06:45:12.303Z,0.4
2018-12-05T06:46:12.327Z,0.4
2018-12-05T06:47:12.252Z,0.3
2018-12-05T06:48:12.336Z,0.3
2018-12-05T06:49:12.315Z,0.3
2018-12-05T06:50:12.274Z,0.2
2018-12-05T06:51:12.274Z,0.2
2018-12-05T06:52:12.228Z,0.2
2018-12-05T06:53:12.225Z,0.2
2018-12-05T06:54:12.322Z,0.2
2018-12-05T06:55:12.262Z,0.1
2018-12-05T06:56:12.328Z,0.1
2018-12-05T06:57:12.305Z,0.1
2018-12-05T06:58:12.246Z,0.1
2018-12-05T06:59:12.259Z,0.6
2018-12-05T07:00:12.243Z,1.2
2018-12-05T07:01:12.262Z,1.6
2018-12-05T07:02:12.330Z,1.9
2018-12-05T07:03:12.253Z,2.3
2018-12-05T07:04:12.254Z,2.7
2018-12-05T07:05:12.261Z,2.8
2018-12-05T07:06:12.264Z,3.1
2018-12-05T07:07:12.331Z,3.4
2018-12-05T07:08:12.258Z,3.7
2018-12-05T07:09:12.247Z,4
2018-12-05T07:10:12.235Z,4.1
2018-12-05T07:11:12.323Z,4.2
2018-12-05T07:12:12.245Z,4.1
2018-12-05T07:13:12.338Z,4
2018-12-05T07:14:12.241Z,3.8
2018-12-05T07:15:12.226Z,3.6
2018-12-05T07:16:12.337Z,3.3
2018-12-05T07:17:12.235Z,3
2018-12-05T07:18:12.261Z,2.7
2018-12-05T07:19:12.234Z,2.4
2018-12-05T07:20:12.215Z,2.2
2018-12-05T07:21:12.297Z,2
2018-12-05T07:22:12.311Z,1.8
2018-12-05T07:23:12.297Z,1.6
2018-12-05T07:24:12.313Z,1.5
2018-12-05T07:25:12.240Z,1.3
2018-12-05T07:26:12.227Z,1.2
2018-12-05T07:27:12.306Z,1.1
2018-12-05T07:28:12.230Z,1
2018-12-05T07:29:12.292Z,0.9
2018-12-05T07:30:12.264Z,0.8
2018-12-05T07:31:12.213Z,0.7
2018-12-05T07:32:12.323Z,0.7
2018-12-05T07:33:12.247Z,0.6
2018-12-05T07:34:12.249Z,0.5
2018-12-05T07:35:12.231Z,0.5
2018-12-05T07:36:12.293Z,0.4
2018-12-05T07:37:12.224Z,0.4
2018-12-05T07:38:19.166Z,0.4
2018-12-05T07:39:12.238Z,0.3
2018-12-05T07:40:12.422Z,0.3
2018-12-05T07:41:12.227Z,0.3
2018-12-05T07:42:12.215Z,0.2
2018-12-05T07:43:12.225Z,0.6
2018-12-05T07:44:12.223Z,1
2018-12-05T07:45:12.280Z,1.3
2018-12-05T07:46:12.241Z,1.4
2018-12-05T07:47:12.264Z,1.3
2018-12-05T07:48:12.248Z,1.5
2018-12-05T07:49:12.268Z,1.8
2018-12-05T07:50:12.214Z,1.7
2018-12-05T07:51:12.236Z,1.5
2018-12-05T07:52:12.274Z,1.5
2018-12-05T07:53:12.224Z,1.7
2018-12-05T07:54:12.210Z,1.6
2018-12-05T07:55:12.311Z,1.4
2018-12-05T07:56:12.228Z,1.3
2018-12-05T07:57:12.285Z,1.2
2018-12-05T07:58:12.288Z,1.1
2018-12-05T07:59:12.233Z,1
2018-12-05T08:00:12.210Z,0.9
2018-12-05T08:01:12.236Z,0.8
2018-12-05T08:02:12.222Z,0.7
2018-12-05T08:03:12.246Z,0.6
2018-12-05T08:04:12.325Z,0.6
2018-12-05T08:05:12.207Z,0.5
2018-12-05T08:06:12.236Z,0.5
2018-12-05T08:07:12.229Z,0.4
2018-12-05T08:08:12.202Z,0.4
2018-12-05T08:09:12.290Z,0.4
2018-12-05T08:10:12.261Z,0.3
2018-12-05T08:11:12.210Z,0.3
2018-12-05T08:12:12.206Z,0.3
2018-12-05T08:13:12.295Z,0.2
2018-12-05T08:14:12.264Z,0.2
2018-12-05T08:15:12.275Z,0.2
2018-12-05T08:16:12.290Z,0.2
2018-12-05T08:17:12.230Z,0.2
2018-12-05T08:18:12.232Z,0.1
2018-12-05T08:19:12.286Z,0.1
2018-12-05T08:20:12.272Z,0.1
2018-12-05T08:21:12.229Z,0.1
2018-12-05T08:22:12.204Z,0.1
2018-12-05T08:23:12.294Z,0.1
2018-12-05T08:24:12.203Z,0.1
2018-12-05T08:25:12.211Z,0.1
2018-12-05T08:26:12.231Z,0.1
2018-12-05T08:27:12.209Z,0.1
2018-12-05T08:28:12.225Z,0.1
2018-12-05T08:29:12.205Z,0
2018-12-05T08:30:12.228Z,0
2018-12-05T08:31:12.240Z,0
2018-12-05T08:32:12.224Z,0
2018-12-05T08:33:12.191Z,0
2018-12-05T08:34:12.266Z,0
2018-12-05T08:35:12.216Z,0
2018-12-05T08:36:12.209Z,0
2018-12-05T08:37:12.229Z,0
2018-12-05T08:38:12.333Z,0
2018-12-05T08:39:12.200Z,0
2018-12-05T08:40:12.225Z,0
2018-12-05T08:41:12.205Z,0
2018-12-05T08:42:12.200Z,0
2018-12-05T08:43:12.267Z,0
2018-12-05T08:44:12.289Z,0
2018-12-05T08:45:12.227Z,0
2018-12-05T08:46:12.207Z,0
2018-12-05T08:47:12.190Z,0
2018-12-05T08:48:12.209Z,0
2018-12-05T08:49:12.275Z,0.1
2018-12-05T08:50:12.283Z,0.2
2018-12-05T08:51:12.218Z,0.1
2018-12-05T08:52:12.216Z,0.1
2018-12-05T08:53:12.269Z,0.1
2018-12-05T08:54:12.294Z,0.3
2018-12-05T08:55:12.230Z,0.4
2018-12-05T08:56:12.199Z,0.4
2018-12-05T08:57:12.458Z,0.4
2018-12-05T08:58:12.189Z,0.6
2018-12-05T08:59:12.245Z,1
2018-12-05T09:00:12.208Z,1.3
2018-12-05T09:01:12.199Z,1.2
2018-12-05T09:02:12.273Z,1.1
2018-12-05T09:03:12.197Z,1.2
2018-12-05T09:04:12.198Z,1.2
2018-12-05T09:05:12.218Z,1.5
2018-12-05T09:06:12.200Z,1.8
2018-12-05T09:07:12.273Z,1.9
2018-12-05T09:08:12.225Z,2
2018-12-05T09:09:12.212Z,2.1
2018-12-05T09:10:12.205Z,2.3
2018-12-05T09:11:12.295Z,2.2
2018-12-05T09:12:12.226Z,2.3
2018-12-05T09:13:12.253Z,2.2
2018-12-05T09:14:12.209Z,2
2018-12-05T09:15:12.193Z,2.1
2018-12-05T09:16:12.225Z,2
2018-12-05T09:17:12.226Z,1.8
2018-12-05T09:18:12.273Z,1.6
2018-12-05T09:19:12.224Z,1.5
2018-12-05T09:20:12.189Z,1.3
2018-12-05T09:21:13.366Z,1.2
2018-12-05T09:22:12.293Z,1.3
2018-12-05T09:23:12.198Z,1.5
2018-12-05T09:24:12.221Z,1.6
2018-12-05T09:25:12.192Z,1.5
2018-12-05T09:26:12.227Z,1.8
2018-12-05T09:27:12.370Z,1.9
2018-12-05T09:28:12.196Z,2
2018-12-05T09:29:12.228Z,2.1
2018-12-05T09:30:12.189Z,1.9
2018-12-05T09:31:12.289Z,1.7
2018-12-05T09:32:12.212Z,1.6
2018-12-05T09:33:12.238Z,1.5
2018-12-05T09:34:12.225Z,1.4
2018-12-05T09:35:12.202Z,1.3
2018-12-05T09:36:12.334Z,1.3
2018-12-05T09:37:12.201Z,1.5
2018-12-05T09:38:12.295Z,1.6
2018-12-05T09:39:12.201Z,1.4
2018-12-05T09:40:12.220Z,1.3
2018-12-05T09:41:12.206Z,1.2
2018-12-05T09:42:12.283Z,1.1
2018-12-05T09:43:12.208Z,1
2018-12-05T09:44:12.276Z,0.9
2018-12-05T09:45:12.208Z,0.8
2018-12-05T09:46:12.260Z,0.7
2018-12-05T09:47:15.810Z,0.6
2018-12-05T09:48:12.209Z,0.6
2018-12-05T09:49:12.206Z,0.5
2018-12-05T09:50:12.228Z,0.5
2018-12-05T09:51:12.278Z,0.4
2018-12-05T09:52:12.213Z,0.4
2018-12-05T09:53:12.199Z,0.4
2018-12-05T09:54:12.192Z,0.3
2018-12-05T09:55:12.206Z,0.3
2018-12-05T09:56:12.199Z,0.3
2018-12-05T09:57:12.298Z,0.2
2018-12-05T09:58:12.184Z,0.2
2018-12-05T09:59:12.227Z,0.2
2018-12-05T10:00:12.265Z,0.2
2018-12-05T10:01:12.233Z,0.2
2018-12-05T10:02:12.198Z,0.1
2018-12-05T10:03:12.178Z,0.1
2018-12-05T10:04:12.198Z,0.1
2018-12-05T10:05:12.270Z,0.1
2018-12-05T10:06:12.272Z,0.1
2018-12-05T10:07:12.205Z,0.1
2018-12-05T10:08:12.226Z,0.1
2018-12-05T10:09:12.184Z,0.1
2018-12-05T10:10:12.216Z,0.1
2018-12-05T10:11:12.291Z,0.1
2018-12-05T10:12:12.197Z,0.1
2018-12-05T10:13:12.197Z,0.1
2018-12-05T10:14:12.185Z,0.1
2018-12-05T10:15:12.219Z,0
2018-12-05T10:16:12.289Z,0
2018-12-05T10:17:12.198Z,0
2018-12-05T10:18:12.216Z,0
2018-12-05T10:19:12.218Z,0
2018-12-05T10:20:12.211Z,0
2018-12-05T10:21:12.304Z,0
2018-12-05T10:22:12.225Z,0
2018-12-05T10:23:12.259Z,0
2018-12-05T10:24:12.223Z,0
2018-12-05T10:25:12.190Z,0
2018-12-05T10:26:12.293Z,0
2018-12-05T10:27:12.192Z,0
2018-12-05T10:28:12.224Z,0
2018-12-05T10:29:12.227Z,0
2018-12-05T10:30:12.206Z,0
2018-12-05T10:31:12.280Z,0
2018-12-05T10:32:12.205Z,0
2018-12-05T10:33:12.291Z,0
2018-12-05T10:34:12.224Z,0
2018-12-05T10:35:12.221Z,0.1
2018-12-05T10:36:12.202Z,0.5
2018-12-05T10:37:12.266Z,0.6
2018-12-05T10:38:12.202Z,0.7
2018-12-05T10:39:12.220Z,1
2018-12-05T10:40:12.224Z,1.3
2018-12-05T10:41:12.187Z,1.3
2018-12-05T10:42:12.261Z,1.2
2018-12-05T10:43:12.200Z,1.3
2018-12-05T10:44:12.218Z,1.8
2018-12-05T10:45:12.266Z,1.6
2018-12-05T10:46:12.288Z,1.5
2018-12-05T10:47:12.173Z,1.4
2018-12-05T10:48:12.228Z,1.4
2018-12-05T10:49:12.198Z,1.4
2018-12-05T10:50:12.220Z,1.6
2018-12-05T10:51:12.298Z,1.5
2018-12-05T10:52:12.215Z,1.8
2018-12-05T10:53:12.263Z,1.9
2018-12-05T10:54:12.201Z,1.9
2018-12-05T10:55:12.222Z,2
2018-12-05T10:56:12.225Z,2.1
2018-12-05T10:57:12.221Z,2.2
2018-12-05T10:58:12.240Z,2.3
2018-12-05T10:59:12.222Z,2.5
2018-12-05T11:00:12.258Z,2.4
2018-12-05T11:01:12.235Z,2.4
2018-12-05T11:02:12.233Z,2.2
2018-12-05T11:03:12.274Z,2.4
2018-12-05T11:04:12.256Z,2.4
2018-12-05T11:05:12.219Z,2.3
2018-12-05T11:06:12.223Z,2.2
2018-12-05T11:07:12.213Z,2.3
2018-12-05T11:08:12.203Z,2.2
2018-12-05T11:09:12.246Z,2
2018-12-05T11:10:12.294Z,1.8
2018-12-05T11:11:12.195Z,1.6
2018-12-05T11:12:12.222Z,1.6
2018-12-05T11:13:12.215Z,1.9
2018-12-05T11:14:12.245Z,1.8
2018-12-05T11:15:12.202Z,1.6
2018-12-05T11:16:12.199Z,1.7
2018-12-05T11:17:12.226Z,1.9
2018-12-05T11:18:12.202Z,2.1
2018-12-05T11:19:12.277Z,2.2
2018-12-05T11:20:12.194Z,2
2018-12-05T11:21:12.196Z,1.8
2018-12-05T11:22:12.219Z,1.8
2018-12-05T11:23:12.197Z,1.8
2018-12-05T11:24:12.288Z,1.7
2018-12-05T11:25:12.257Z,1.5
2018-12-05T11:26:12.193Z,1.5
2018-12-05T11:27:12.192Z,1.4
2018-12-05T11:28:12.220Z,1.5
2018-12-05T11:29:12.188Z,1.5
2018-12-05T11:30:12.256Z,1.7
2018-12-05T11:31:12.246Z,1.9
2018-12-05T11:32:12.223Z,2
2018-12-05T11:33:12.198Z,2
2018-12-05T11:34:12.202Z,1.8
2018-12-05T11:35:12.269Z,1.6
2018-12-05T11:36:12.212Z,1.6
2018-12-05T11:37:12.190Z,1.4
2018-12-05T11:38:12.197Z,1.4
2018-12-05T11:39:12.199Z,1.4
2018-12-05T11:40:12.265Z,1.5
2018-12-05T11:41:12.189Z,1.5
2018-12-05T11:42:12.174Z,1.8
2018-12-05T11:43:12.290Z,1.8
2018-12-05T11:44:12.198Z,1.7
2018-12-05T11:45:12.275Z,1.6
2018-12-05T11:46:12.196Z,1.6
2018-12-05T11:47:12.197Z,1.4
2018-12-05T11:48:12.219Z,1.3
2018-12-05T11:49:12.196Z,1.3
2018-12-05T11:50:12.271Z,1.2
2018-12-05T11:51:12.218Z,1.5
2018-12-05T11:52:12.274Z,1.6
2018-12-05T11:53:12.187Z,2
2018-12-05T11:54:12.230Z,2.3
2018-12-05T11:55:12.214Z,2.7
2018-12-05T11:56:12.228Z,2.6
2018-12-05T11:57:12.311Z,2.5
2018-12-05T11:58:12.179Z,2.4
2018-12-05T11:59:12.204Z,2.3
2018-12-05T12:00:12.221Z,2.1
2018-12-05T12:01:12.199Z,2.1
2018-12-05T12:02:12.325Z,2.1
2018-12-05T12:03:12.237Z,2.1
2018-12-05T12:04:12.201Z,1.9
2018-12-05T12:05:12.267Z,1.7
2018-12-05T12:06:12.219Z,1.6
2018-12-05T12:07:12.203Z,1.4
2018-12-05T12:08:12.230Z,1.5
2018-12-05T12:09:12.243Z,1.4
2018-12-05T12:10:12.215Z,1.3
2018-12-05T12:11:12.225Z,1.3
2018-12-05T12:12:12.266Z,1.6
2018-12-05T12:13:12.198Z,1.7
2018-12-05T12:14:12.253Z,1.8
2018-12-05T12:15:12.233Z,2.2
2018-12-05T12:16:12.293Z,2.6
2018-12-05T12:17:12.194Z,2.9
2018-12-05T12:18:12.220Z,3.3
2018-12-05T12:19:12.175Z,3.4
2018-12-05T12:20:12.221Z,3.4
2018-12-05T12:21:12.271Z,3.4
2018-12-05T12:22:12.202Z,3.2
2018-12-05T12:23:12.229Z,3
2018-12-05T12:24:12.290Z,2.8
2018-12-05T12:25:12.201Z,2.6
2018-12-05T12:26:12.291Z,2.4
2018-12-05T12:27:12.215Z,2.4
2018-12-05T12:28:12.222Z,2.2
2018-12-05T12:29:12.218Z,2
2018-12-05T12:30:15.780Z,1.8
2018-12-05T12:31:12.190Z,1.6
2018-12-05T12:32:12.201Z,1.5
2018-12-05T12:33:12.256Z,1.3
2018-12-05T12:34:12.215Z,1.2
2018-12-05T12:35:12.203Z,1.1
2018-12-05T12:36:12.264Z,1
2018-12-05T12:37:12.233Z,0.9
2018-12-05T12:38:12.220Z,0.8
2018-12-05T12:39:12.216Z,0.7
2018-12-05T12:40:12.194Z,0.7
2018-12-05T12:41:12.254Z,0.6
2018-12-05T12:42:12.174Z,0.5
2018-12-05T12:43:12.282Z,0.5
2018-12-05T12:44:12.213Z,0.4
2018-12-05T12:45:12.201Z,0.4
2018-12-05T12:46:12.184Z,0.4
2018-12-05T12:47:12.185Z,0.3
2018-12-05T12:48:12.283Z,0.3
2018-12-05T12:49:12.214Z,0.3
2018-12-05T12:50:12.289Z,0.2
2018-12-05T12:51:12.199Z,0.2
2018-12-05T12:52:12.176Z,0.4
2018-12-05T12:53:12.257Z,0.6
2018-12-05T12:54:12.215Z,0.8
2018-12-05T12:55:12.183Z,0.8
2018-12-05T12:56:12.217Z,1
2018-12-05T12:57:12.195Z,1.2
2018-12-05T12:58:12.278Z,1.1
2018-12-05T12:59:12.204Z,1.1
2018-12-05T13:00:12.193Z,1
2018-12-05T13:01:12.213Z,0.9
2018-12-05T13:02:12.178Z,0.8
2018-12-05T13:03:12.267Z,0.9
2018-12-05T13:04:12.213Z,1
2018-12-05T13:05:12.199Z,1
2018-12-05T13:06:12.189Z,1
2018-12-05T13:07:12.283Z,1
2018-12-05T13:08:12.200Z,0.9
2018-12-05T13:09:12.252Z,0.9
2018-12-05T13:10:12.235Z,0.8
2018-12-05T13:11:12.183Z,0.8
2018-12-05T13:12:12.256Z,1
2018-12-05T13:13:12.210Z,1
2018-12-05T13:14:12.170Z,1
2018-12-05T13:15:12.192Z,0.9
2018-12-05T13:16:12.183Z,1
2018-12-05T13:17:12.248Z,0.9
2018-12-05T13:18:12.208Z,0.8
2018-12-05T13:19:12.179Z,0.8
2018-12-05T13:20:12.242Z,0.8
2018-12-05T13:21:12.209Z,0.9
2018-12-05T13:22:12.186Z,0.8
2018-12-05T13:23:12.188Z,0.8
2018-12-05T13:24:12.252Z,0.7
2018-12-05T13:25:12.259Z,0.8
2018-12-05T13:26:12.185Z,0.8
2018-12-05T13:27:12.208Z,1
2018-12-05T13:28:12.318Z,1.5
2018-12-05T13:29:12.257Z,1.6
2018-12-05T13:30:12.524Z,1.5
2018-12-05T13:31:12.195Z,1.3
2018-12-05T13:32:12.164Z,1.3
2018-12-05T13:33:12.208Z,1.2
2018-12-05T13:34:12.256Z,1.2
2018-12-05T13:35:12.253Z,1.2
2018-12-05T13:36:12.185Z,1.2
2018-12-05T13:37:12.261Z,1.1
2018-12-05T13:38:12.189Z,1
2018-12-05T13:39:12.203Z,0.9
2018-12-05T13:40:13.153Z,0.8
2018-12-05T13:41:12.539Z,1
2018-12-05T13:42:12.310Z,1.2
2018-12-05T13:43:12.312Z,1.2
2018-12-05T13:44:14.244Z,1.7
2018-12-05T13:45:12.299Z,2.4
2018-12-05T13:46:12.239Z,3
2018-12-05T13:47:12.246Z,3.3
2018-12-05T13:48:12.279Z,3.6
2018-12-05T13:49:12.214Z,3.4
2018-12-05T13:50:12.251Z,3.1
2018-12-05T13:51:12.228Z,3
2018-12-05T13:52:12.282Z,3.2
2018-12-05T13:53:12.201Z,3.1
2018-12-05T13:54:12.214Z,3.3
2018-12-05T13:55:12.325Z,3.6
2018-12-05T13:56:12.284Z,3.7
2018-12-05T13:57:15.015Z,3.8
2018-12-05T13:58:12.271Z,4.1
2018-12-05T13:59:12.203Z,4.2